createdAt,value
2023-02-25T00:02:02.585Z,63.21
2023-02-25T00:07:29.563Z,63.52
2023-02-25T00:12:54.111Z,63.70
2023-02-25T00:18:18.258Z,63.70
2023-02-25T00:23:44.515Z,63.53
2023-02-25T00:29:09.094Z,63.32
2023-02-25T00:34:33.402Z,63.44
2023-02-25T00:39:58.171Z,63.89
2023-02-25T00:45:24.633Z,63.98
2023-02-25T00:50:49.402Z,63.71
2023-02-25T00:56:16.287Z,64.04
2023-02-25T01:01:40.851Z,64.47
2023-02-25T01:07:05.436Z,64.74
2023-02-25T01:12:31.104Z,64.72
2023-02-25T01:17:55.614Z,64.56
2023-02-25T01:23:21.832Z,64.74
2023-02-25T01:28:47.066Z,65.07
2023-02-25T01:34:15.518Z,65.14
2023-02-25T01:39:41.526Z,65.21
2023-02-25T01:45:14.551Z,65.31
2023-02-25T01:50:52.744Z,65.44
2023-02-25T01:56:21.274Z,65.31
2023-02-25T02:01:46.367Z,65.25
2023-02-25T02:07:11.419Z,64.85
2023-02-25T02:12:39.796Z,64.68
2023-02-25T02:18:06.432Z,64.46
2023-02-25T02:24:22.208Z,64.70
2023-02-25T02:29:52.064Z,64.44
2023-02-25T02:35:40.735Z,64.35
2023-02-25T02:41:36.743Z,63.92
2023-02-25T02:47:07.304Z,64.32
2023-02-25T02:52:34.774Z,64.35
2023-02-25T02:58:22.497Z,64.01
2023-02-25T03:03:55.144Z,63.58
2023-02-25T03:09:25.614Z,63.49
2023-02-25T03:14:49.907Z,63.27
2023-02-25T03:20:24.302Z,63.50
2023-02-25T03:25:56.890Z,63.26
2023-02-25T03:31:46.507Z,63.38
2023-02-25T03:37:17.296Z,64.04
2023-02-25T03:42:51.490Z,64.50
2023-02-25T03:48:19.453Z,64.93
2023-02-25T03:53:43.213Z,65.17
2023-02-25T03:59:16.999Z,64.81
2023-02-25T04:04:42.767Z,64.95
2023-02-25T04:10:09.944Z,65.32
2023-02-25T04:15:34.660Z,65.40
2023-02-25T04:20:59.703Z,65.85
2023-02-25T04:26:24.564Z,65.63
2023-02-25T04:31:49.346Z,65.71
2023-02-25T04:37:13.963Z,65.53
2023-02-25T04:42:38.442Z,65.91
2023-02-25T04:48:03.875Z,65.59
2023-02-25T04:53:28.453Z,65.93
2023-02-25T04:58:54.296Z,65.93
2023-02-25T05:04:18.734Z,65.77
2023-02-25T05:09:43.240Z,65.93
2023-02-25T05:15:08.917Z,66.69
2023-02-25T05:20:33.690Z,66.98
2023-02-25T05:26:00.456Z,66.98
2023-02-25T05:31:26.394Z,66.83
2023-02-25T05:36:50.858Z,66.69
2023-02-25T05:42:15.296Z,66.55
2023-02-25T05:47:39.877Z,66.36
2023-02-25T05:53:04.734Z,66.22
2023-02-25T05:58:29.619Z,66.18
2023-02-25T06:03:53.844Z,66.37
2023-02-25T06:09:19.351Z,66.41
2023-02-25T06:14:43.991Z,66.41
2023-02-25T06:20:08.955Z,66.30
2023-02-25T06:25:34.252Z,66.40
2023-02-25T06:30:58.559Z,66.57
2023-02-25T06:36:22.677Z,66.51
2023-02-25T06:41:46.841Z,66.47
2023-02-25T06:47:30.275Z,66.42
2023-02-25T06:52:54.851Z,66.29
2023-02-25T06:58:19.672Z,66.47
2023-02-25T07:03:44.448Z,66.63
2023-02-25T07:09:08.997Z,66.39
2023-02-25T07:14:33.809Z,66.17
2023-02-25T07:19:58.673Z,66.23
2023-02-25T07:25:23.158Z,66.51
2023-02-25T07:30:48.994Z,66.50
2023-02-25T07:36:15.501Z,66.51
2023-02-25T07:41:40.514Z,66.35
2023-02-25T07:47:12.261Z,66.43
2023-02-25T07:52:39.140Z,66.55
2023-02-25T07:58:05.316Z,66.71
2023-02-25T08:03:31.812Z,66.81
2023-02-25T08:08:56.993Z,67.02
2023-02-25T08:14:22.063Z,67.09
2023-02-25T08:19:46.553Z,67.29
2023-02-25T08:25:11.673Z,67.34
2023-02-25T08:30:37.492Z,67.13
2023-02-25T08:36:21.050Z,67.04
2023-02-25T08:42:21.241Z,67.57
2023-02-25T08:48:20.439Z,67.31
2023-02-25T08:54:19.375Z,67.34
2023-02-25T09:00:19.234Z,67.46
2023-02-25T09:06:23.364Z,67.15
2023-02-25T09:11:48.624Z,67.08
2023-02-25T09:17:13.158Z,66.98
2023-02-25T09:22:40.528Z,66.44
2023-02-25T09:28:05.342Z,66.17
2023-02-25T09:33:31.793Z,66.30
2023-02-25T09:38:58.629Z,65.74
2023-02-25T09:44:39.717Z,65.45
2023-02-25T09:50:24.049Z,65.65
2023-02-25T09:55:51.281Z,65.59
2023-02-25T10:01:52.096Z,66.08
2023-02-25T10:07:26.946Z,65.80
2023-02-25T10:13:02.810Z,65.60
2023-02-25T10:18:46.389Z,65.34
2023-02-25T10:24:22.876Z,64.87
2023-02-25T10:29:53.067Z,65.08
2023-02-25T10:35:17.948Z,64.85
2023-02-25T10:40:42.748Z,64.80
2023-02-25T10:46:44.990Z,64.78
2023-02-25T10:52:18.160Z,64.94
2023-02-25T10:57:43.533Z,64.81
2023-02-25T11:03:16.247Z,64.87
2023-02-25T11:08:41.574Z,64.55
2023-02-25T11:14:15.629Z,64.68
2023-02-25T11:19:47.679Z,64.51
2023-02-25T11:25:19.224Z,64.98
2023-02-25T11:30:43.460Z,64.22
2023-02-25T11:36:08.493Z,63.22
2023-02-25T11:41:33.169Z,62.53
2023-02-25T11:47:03.794Z,61.87
2023-02-25T11:52:38.543Z,61.86
2023-02-25T11:58:31.641Z,61.15
2023-02-25T12:04:14.548Z,62.14
2023-02-25T12:10:03.240Z,62.60
2023-02-25T12:15:30.593Z,62.90
2023-02-25T12:21:22.810Z,62.94
2023-02-25T12:27:10.121Z,63.42
2023-02-25T12:32:43.310Z,63.74
2023-02-25T12:39:13.012Z,63.42
2023-02-25T12:44:49.608Z,63.12
2023-02-25T12:50:51.931Z,63.19
2023-02-25T12:56:34.200Z,63.19
2023-02-25T13:02:17.430Z,63.05
2023-02-25T13:07:44.726Z,62.67
2023-02-25T13:13:42.408Z,63.17
2023-02-25T13:19:42.215Z,63.30
2023-02-25T13:25:47.757Z,61.96
2023-02-25T13:31:52.318Z,61.00
2023-02-25T13:37:42.651Z,59.88
2023-02-25T13:43:37.619Z,60.35
2023-02-25T13:49:10.967Z,61.24
2023-02-25T13:54:58.669Z,61.06
2023-02-25T14:00:37.086Z,60.89
2023-02-25T14:06:15.822Z,60.50
2023-02-25T14:12:13.165Z,60.17
2023-02-25T14:17:47.321Z,59.96
2023-02-25T14:23:45.084Z,59.80
2023-02-25T14:29:37.304Z,60.92
2023-02-25T14:35:30.492Z,65.51
2023-02-25T14:41:32.178Z,63.44
2023-02-25T14:47:15.098Z,63.23
2023-02-25T14:53:23.244Z,62.82
2023-02-25T14:59:16.589Z,61.99
2023-02-25T15:05:10.821Z,61.49
2023-02-25T15:17:14.252Z,61.19
2023-02-25T15:23:21.900Z,61.24
2023-02-25T15:28:57.168Z,60.60
2023-02-25T15:34:24.765Z,59.78
2023-02-25T15:40:16.773Z,57.47
2023-02-25T15:45:48.123Z,58.94
2023-02-25T15:51:48.822Z,67.35
2023-02-25T15:57:23.713Z,65.40
2023-02-25T16:03:08.444Z,63.25
2023-02-25T16:08:51.886Z,62.45
2023-02-25T16:38:25.349Z,60.63
2023-02-25T16:43:55.708Z,60.64
2023-02-25T16:49:41.045Z,60.50
2023-02-25T16:55:12.722Z,60.37
2023-02-25T17:00:53.425Z,60.28
2023-02-25T17:06:21.270Z,60.60
2023-02-25T17:11:55.629Z,60.56
2023-02-25T17:17:53.556Z,60.07
2023-02-25T17:23:26.573Z,58.21
2023-02-25T17:29:01.200Z,59.23
2023-02-25T17:34:35.915Z,66.90
2023-02-25T17:40:09.770Z,66.14
2023-02-25T17:45:50.184Z,63.27
2023-02-25T17:51:32.963Z,62.11
2023-02-25T17:57:16.116Z,60.98
2023-02-25T18:02:48.213Z,60.55
2023-02-25T18:09:09.200Z,58.31
2023-02-25T18:14:47.323Z,58.91
2023-02-25T18:20:48.273Z,68.51
2023-02-25T18:26:22.501Z,66.62
2023-02-25T18:31:52.168Z,64.43
2023-02-25T18:37:22.654Z,62.52
2023-02-25T18:42:52.120Z,61.84
2023-02-25T18:48:23.889Z,60.78
2023-02-25T18:53:58.048Z,60.41
2023-02-25T18:59:28.895Z,60.13
2023-02-25T19:05:03.320Z,60.18
2023-02-25T19:10:36.497Z,59.61
2023-02-25T19:16:07.527Z,57.85
2023-02-25T19:21:46.872Z,59.91
2023-02-25T19:27:24.907Z,67.24
2023-02-25T19:32:56.190Z,67.95
2023-02-25T19:38:23.221Z,64.84
2023-02-25T19:43:55.721Z,63.01
2023-02-25T19:49:30.501Z,61.68
2023-02-25T19:55:03.770Z,61.14
2023-02-25T20:00:40.104Z,60.59
2023-02-25T20:06:13.637Z,60.42
2023-02-25T20:11:44.940Z,59.98
2023-02-25T20:17:09.548Z,59.81
2023-02-25T20:22:33.663Z,59.67
2023-02-25T20:28:00.545Z,57.12
2023-02-25T20:33:28.394Z,55.24
2023-02-25T20:39:02.701Z,60.56
2023-02-25T20:44:27.335Z,69.22
2023-02-25T20:49:51.677Z,67.06
2023-02-25T20:55:15.802Z,64.58
2023-02-25T21:00:40.107Z,63.09
2023-02-25T21:06:04.854Z,61.44
2023-02-25T21:11:29.675Z,60.56
2023-02-25T21:16:57.224Z,59.65
2023-02-25T21:22:21.803Z,55.48
2023-02-25T21:27:46.769Z,56.56
2023-02-25T21:33:12.538Z,58.02
2023-02-25T21:38:38.750Z,60.75
2023-02-25T21:44:04.842Z,70.58
2023-02-25T21:49:31.717Z,71.22
2023-02-25T21:54:55.989Z,67.69
2023-02-25T22:00:20.778Z,64.75
2023-02-25T22:05:47.205Z,63.11
2023-02-25T22:11:21.265Z,62.13
2023-02-25T22:16:46.165Z,61.01
2023-02-25T22:22:10.171Z,60.21
2023-02-25T22:27:34.597Z,60.07
2023-02-25T22:32:59.289Z,60.16
2023-02-25T22:38:23.808Z,60.07
2023-02-25T22:43:49.556Z,60.02
2023-02-25T22:49:14.182Z,59.64
2023-02-25T22:54:37.967Z,55.92
2023-02-25T23:00:02.344Z,55.18
2023-02-25T23:05:26.989Z,55.94
2023-02-25T23:10:51.411Z,61.02
2023-02-25T23:16:22.981Z,70.37
2023-02-25T23:21:48.232Z,70.86
2023-02-25T23:27:13.095Z,68.13
2023-02-25T23:32:37.229Z,64.92
2023-02-25T23:38:01.858Z,62.51
2023-02-25T23:43:26.467Z,61.10
2023-02-25T23:48:55.786Z,60.09
2023-02-25T23:54:22.683Z,56.70
2023-02-25T23:59:47.058Z,51.77
